createdAt,value
2019-04-29T00:00:54.957Z,88.36
2019-04-29T00:03:26.248Z,88.69
2019-04-29T00:05:57.609Z,88.99
2019-04-29T00:08:28.927Z,88.85
2019-04-29T00:11:00.176Z,88.64
2019-04-29T00:13:31.574Z,88.24
2019-04-29T00:16:21.349Z,87.90
2019-04-29T00:19:11.875Z,87.89
2019-04-29T00:21:43.179Z,87.99
2019-04-29T00:24:14.467Z,88.16
2019-04-29T00:26:45.768Z,88.22
2019-04-29T00:29:17.081Z,88.28
2019-04-29T00:31:48.472Z,88.28
2019-04-29T00:34:19.794Z,88.30
2019-04-29T00:37:16.178Z,88.33
2019-04-29T00:40:15.235Z,88.22
2019-04-29T00:42:52.750Z,87.92
2019-04-29T00:45:24.584Z,87.71
2019-04-29T00:47:55.900Z,87.64
2019-04-29T00:50:27.173Z,87.67
2019-04-29T00:52:58.526Z,87.91
2019-04-29T00:55:31.406Z,88.18
2019-04-29T00:58:02.737Z,88.32
2019-04-29T01:00:38.304Z,88.16
2019-04-29T01:03:09.777Z,88.22
2019-04-29T01:05:41.206Z,88.44
2019-04-29T01:08:12.510Z,88.54
2019-04-29T01:10:43.865Z,88.38
2019-04-29T01:13:15.165Z,88.33
2019-04-29T01:15:46.499Z,88.39
2019-04-29T01:18:18.019Z,88.24
2019-04-29T01:20:49.263Z,88.08
2019-04-29T01:23:20.579Z,88.16
2019-04-29T01:25:55.631Z,88.36
2019-04-29T01:28:35.924Z,88.45
2019-04-29T01:31:12.578Z,88.34
2019-04-29T01:33:43.846Z,88.17
2019-04-29T01:36:43.201Z,88.14
2019-04-29T01:39:16.088Z,88.34
2019-04-29T01:42:11.021Z,88.69
2019-04-29T01:44:42.301Z,88.88
2019-04-29T01:47:13.571Z,89.20
2019-04-29T01:49:44.854Z,89.42
2019-04-29T01:52:16.181Z,89.76
2019-04-29T01:54:47.521Z,90.31
2019-04-29T01:57:18.816Z,90.93
2019-04-29T01:59:50.134Z,91.62
2019-04-29T02:02:21.428Z,91.99
2019-04-29T02:04:52.765Z,91.97
2019-04-29T02:07:24.023Z,91.29
2019-04-29T02:10:03.897Z,91.36
2019-04-29T02:12:35.170Z,91.67
2019-04-29T02:15:07.371Z,92.06
2019-04-29T02:17:38.686Z,92.42
2019-04-29T02:20:10.191Z,92.65
2019-04-29T02:23:03.444Z,92.59
2019-04-29T02:25:38.364Z,92.36
2019-04-29T02:28:09.667Z,92.13
2019-04-29T02:30:47.776Z,91.60
2019-04-29T02:33:19.098Z,91.00
2019-04-29T02:35:50.403Z,89.97
2019-04-29T02:38:46.019Z,89.80
2019-04-29T02:41:24.408Z,89.70
2019-04-29T02:43:57.370Z,89.52
2019-04-29T02:46:28.675Z,89.57
2019-04-29T02:48:59.968Z,89.65
2019-04-29T02:51:49.475Z,89.54
2019-04-29T02:54:20.788Z,89.72
2019-04-29T02:56:59.782Z,89.65
2019-04-29T02:59:35.951Z,89.37
2019-04-29T03:02:22.644Z,89.17
2019-04-29T03:05:27.782Z,88.77
2019-04-29T03:07:59.141Z,88.84
2019-04-29T03:10:30.489Z,89.30
2019-04-29T03:13:01.792Z,89.71
2019-04-29T03:15:35.027Z,89.98
2019-04-29T03:18:06.442Z,90.05
2019-04-29T03:20:52.209Z,89.99
2019-04-29T03:23:24.161Z,89.92
2019-04-29T03:25:55.413Z,90.00
2019-04-29T03:28:26.798Z,89.95
2019-04-29T03:30:58.077Z,89.95
2019-04-29T03:33:29.403Z,89.93
2019-04-29T03:36:00.801Z,89.99
2019-04-29T03:38:32.093Z,90.03
2019-04-29T03:41:03.404Z,90.00
2019-04-29T03:43:34.661Z,89.97
2019-04-29T03:46:05.984Z,90.32
2019-04-29T03:48:37.254Z,91.11
2019-04-29T03:51:08.578Z,91.70
2019-04-29T03:53:42.802Z,92.07
2019-04-29T03:56:14.083Z,92.20
2019-04-29T03:58:45.372Z,91.54
2019-04-29T04:01:24.165Z,91.04
2019-04-29T04:03:59.827Z,91.64
2019-04-29T04:06:51.182Z,91.95
2019-04-29T04:09:24.923Z,92.90
2019-04-29T04:11:56.250Z,93.83
2019-04-29T04:14:27.549Z,94.72
2019-04-29T04:17:15.050Z,95.08
2019-04-29T04:19:47.075Z,95.47
2019-04-29T04:22:18.361Z,95.27
2019-04-29T04:24:52.205Z,95.31
2019-04-29T04:27:23.520Z,94.79
2019-04-29T04:29:54.885Z,94.49
2019-04-29T04:32:26.201Z,93.83
2019-04-29T04:34:57.514Z,93.35
2019-04-29T04:37:28.836Z,93.07
2019-04-29T04:40:00.100Z,92.63
2019-04-29T04:42:31.395Z,91.36
2019-04-29T04:45:02.705Z,89.90
2019-04-29T04:47:33.981Z,89.98
2019-04-29T04:50:05.390Z,90.65
2019-04-29T04:52:36.745Z,90.93
2019-04-29T04:55:08.388Z,90.87
2019-04-29T04:57:39.657Z,90.87
2019-04-29T05:00:20.234Z,90.59
2019-04-29T05:02:51.790Z,90.58
2019-04-29T05:05:23.132Z,90.82
2019-04-29T05:07:54.431Z,91.00
2019-04-29T05:10:25.746Z,91.24
2019-04-29T05:12:56.993Z,91.48
2019-04-29T05:15:28.229Z,91.42
2019-04-29T05:17:59.542Z,91.26
2019-04-29T05:20:30.854Z,90.77
2019-04-29T05:23:02.184Z,90.43
2019-04-29T05:25:34.702Z,90.12
2019-04-29T05:28:06.547Z,90.01
2019-04-29T05:30:37.853Z,89.62
2019-04-29T05:33:09.125Z,89.74
2019-04-29T05:35:50.158Z,89.90
2019-04-29T05:38:25.647Z,90.07
2019-04-29T05:40:57.291Z,90.15
2019-04-29T05:43:38.673Z,90.31
2019-04-29T05:46:21.605Z,90.41
2019-04-29T05:48:52.720Z,90.31
2019-04-29T05:51:49.148Z,90.10
2019-04-29T05:54:20.471Z,89.60
2019-04-29T05:56:51.781Z,89.28
2019-04-29T05:59:23.099Z,89.15
2019-04-29T06:01:54.382Z,89.04
2019-04-29T06:04:28.468Z,88.92
2019-04-29T06:06:58.685Z,88.69
2019-04-29T06:09:30.035Z,88.70
2019-04-29T06:12:01.317Z,88.84
2019-04-29T06:14:32.633Z,88.70
2019-04-29T06:17:07.701Z,88.49
2019-04-29T06:19:39.452Z,87.96
2019-04-29T06:22:09.873Z,86.98
2019-04-29T06:24:42.201Z,86.85
2019-04-29T06:27:13.458Z,86.63
2019-04-29T06:29:44.708Z,86.76
2019-04-29T06:32:20.171Z,86.52
2019-04-29T06:34:50.865Z,85.93
2019-04-29T06:37:22.165Z,85.43
2019-04-29T06:39:53.400Z,85.37
2019-04-29T06:42:24.631Z,84.89
2019-04-29T06:44:55.997Z,84.40
2019-04-29T06:47:27.289Z,83.92
2019-04-29T06:49:58.625Z,83.42
2019-04-29T06:52:29.925Z,82.70
2019-04-29T06:55:01.253Z,82.66
2019-04-29T06:57:32.582Z,82.24
2019-04-29T07:00:04.008Z,81.47
2019-04-29T07:02:35.314Z,80.65
2019-04-29T07:05:07.756Z,79.38
2019-04-29T07:07:39.078Z,78.55
2019-04-29T07:10:10.953Z,77.70
2019-04-29T07:12:42.749Z,76.90
2019-04-29T07:15:15.367Z,75.71
2019-04-29T07:17:46.681Z,74.98
2019-04-29T07:20:17.937Z,73.57
2019-04-29T07:22:49.300Z,72.80
2019-04-29T07:25:20.625Z,71.68
2019-04-29T07:27:51.932Z,71.72
2019-04-29T07:30:23.419Z,70.56
2019-04-29T07:32:54.718Z,70.34
2019-04-29T07:35:26.040Z,69.86
2019-04-29T07:37:57.389Z,69.69
2019-04-29T07:40:28.803Z,68.12
2019-04-29T07:43:02.793Z,66.24
2019-04-29T07:45:52.061Z,64.99
2019-04-29T07:48:23.362Z,64.06
2019-04-29T07:50:54.682Z,63.44
2019-04-29T07:53:35.035Z,60.74
2019-04-29T07:56:01.757Z,59.56
2019-04-29T07:58:32.021Z,59.38
2019-04-29T08:01:03.337Z,57.20
2019-04-29T08:03:34.644Z,56.30
2019-04-29T08:06:05.984Z,56.03
2019-04-29T08:08:37.868Z,54.59
2019-04-29T08:11:09.165Z,54.51
2019-04-29T08:13:45.476Z,52.92
2019-04-29T08:16:18.476Z,50.69
2019-04-29T08:18:53.602Z,50.36
2019-04-29T08:21:22.998Z,50.08
2019-04-29T08:23:54.315Z,49.36
2019-04-29T08:26:25.637Z,49.16
2019-04-29T08:29:00.245Z,49.04
2019-04-29T08:31:29.941Z,47.94
2019-04-29T08:34:01.327Z,46.29
2019-04-29T08:36:32.645Z,44.50
2019-04-29T08:39:08.612Z,44.82
2019-04-29T08:41:37.598Z,44.26
2019-04-29T08:44:25.927Z,42.08
2019-04-29T08:47:13.443Z,42.47
2019-04-29T08:49:44.835Z,41.63
2019-04-29T08:52:16.116Z,41.73
2019-04-29T08:54:50.637Z,41.46
2019-04-29T08:57:20.437Z,40.68
2019-04-29T08:59:51.741Z,40.44
2019-04-29T09:02:34.675Z,40.16
2019-04-29T09:04:56.015Z,40.52
2019-04-29T09:07:27.355Z,40.82
2019-04-29T09:10:01.750Z,38.90
2019-04-29T09:12:31.760Z,39.15
2019-04-29T09:15:03.147Z,40.32
2019-04-29T09:17:34.441Z,38.81
2019-04-29T09:20:07.169Z,37.45
2019-04-29T09:22:41.099Z,37.23
2019-04-29T09:25:31.387Z,38.04
2019-04-29T09:28:07.297Z,38.46
2019-04-29T09:30:39.012Z,38.37
2019-04-29T09:33:13.161Z,38.48
2019-04-29T09:35:43.316Z,37.35
2019-04-29T09:38:14.614Z,35.45
2019-04-29T09:40:54.466Z,36.31
2019-04-29T09:43:47.561Z,35.08
2019-04-29T09:46:30.084Z,35.40
2019-04-29T09:48:58.775Z,33.78
2019-04-29T09:51:30.067Z,34.28
2019-04-29T09:54:01.349Z,34.69
2019-04-29T09:56:34.702Z,33.82
2019-04-29T09:59:23.021Z,34.84
2019-04-29T10:02:26.569Z,36.43
2019-04-29T10:05:13.309Z,34.00
2019-04-29T10:07:44.590Z,35.46
2019-04-29T10:10:15.885Z,35.13
2019-04-29T10:12:47.199Z,35.36
2019-04-29T10:15:20.569Z,34.77
2019-04-29T10:18:16.561Z,35.58
2019-04-29T10:20:50.806Z,36.49
2019-04-29T10:23:22.111Z,36.94
2019-04-29T10:25:53.452Z,37.27
2019-04-29T10:28:24.753Z,37.62
2019-04-29T10:30:56.103Z,37.39
2019-04-29T10:33:27.824Z,35.95
2019-04-29T10:35:59.213Z,35.78
2019-04-29T10:38:30.540Z,36.09
2019-04-29T10:41:14.461Z,36.74
2019-04-29T10:44:09.246Z,37.35
2019-04-29T10:46:56.887Z,38.61
2019-04-29T10:49:34.781Z,38.52
2019-04-29T10:52:05.183Z,38.43
2019-04-29T10:54:36.512Z,36.79
2019-04-29T10:57:10.540Z,35.99
2019-04-29T10:59:45.015Z,36.56
2019-04-29T11:02:49.374Z,36.21
2019-04-29T11:05:37.303Z,36.82
2019-04-29T11:08:26.220Z,36.76
2019-04-29T11:11:02.401Z,37.30
2019-04-29T11:13:31.979Z,34.52
2019-04-29T11:16:03.329Z,33.88
2019-04-29T11:18:34.601Z,34.16
2019-04-29T11:21:08.853Z,34.49
2019-04-29T11:23:50.690Z,35.41
2019-04-29T11:26:37.396Z,36.66
2019-04-29T11:29:09.482Z,37.54
2019-04-29T11:31:41.026Z,37.10
2019-04-29T11:34:19.852Z,35.65
2019-04-29T11:36:51.114Z,34.60
2019-04-29T11:39:22.516Z,35.08
2019-04-29T11:41:54.608Z,33.95
2019-04-29T11:44:27.961Z,34.96
2019-04-29T11:46:59.474Z,35.16
2019-04-29T11:49:42.259Z,35.60
2019-04-29T11:52:13.543Z,36.06
2019-04-29T11:54:44.822Z,36.54
2019-04-29T11:57:40.122Z,36.17
2019-04-29T12:00:33.383Z,35.23
2019-04-29T12:03:08.203Z,34.96
2019-04-29T12:05:45.029Z,34.66
2019-04-29T12:08:17.044Z,34.06
2019-04-29T12:11:05.688Z,34.02
2019-04-29T12:13:31.489Z,34.31
2019-04-29T12:16:10.975Z,33.81
2019-04-29T12:18:51.309Z,33.39
2019-04-29T12:21:30.586Z,34.18
2019-04-29T12:24:04.430Z,34.88
2019-04-29T12:26:42.974Z,34.89
2019-04-29T12:29:08.725Z,35.03
2019-04-29T12:32:05.660Z,34.79
2019-04-29T12:35:04.687Z,34.21
2019-04-29T12:38:00.666Z,33.41
2019-04-29T12:40:50.212Z,34.10
2019-04-29T12:43:36.382Z,34.52
2019-04-29T12:46:17.676Z,33.85
2019-04-29T12:48:49.010Z,34.06
2019-04-29T12:51:20.309Z,34.53
2019-04-29T12:53:51.605Z,34.77
2019-04-29T12:56:33.107Z,36.21
2019-04-29T12:59:04.767Z,34.22
2019-04-29T13:02:09.805Z,34.73
2019-04-29T13:04:58.641Z,34.99
2019-04-29T13:07:43.121Z,35.73
2019-04-29T13:10:22.752Z,34.34
2019-04-29T13:12:54.050Z,33.22
2019-04-29T13:15:43.825Z,34.36
2019-04-29T13:18:23.848Z,34.01
2019-04-29T13:21:09.153Z,33.48
2019-04-29T13:23:36.011Z,34.00
2019-04-29T13:26:01.149Z,33.46
2019-04-29T13:28:34.603Z,33.33
2019-04-29T13:31:05.488Z,33.28
2019-04-29T13:33:36.776Z,34.12
2019-04-29T13:36:08.354Z,34.42
2019-04-29T13:38:39.679Z,33.79
2019-04-29T13:41:14.095Z,33.42
2019-04-29T13:43:43.956Z,33.79
2019-04-29T13:46:31.175Z,34.12
2019-04-29T13:49:13.555Z,34.92
2019-04-29T13:51:42.419Z,35.33
2019-04-29T13:54:13.734Z,35.25
2019-04-29T13:56:55.312Z,34.94
2019-04-29T13:59:23.533Z,35.10
2019-04-29T14:02:12.599Z,35.82
2019-04-29T14:04:48.193Z,34.86
2019-04-29T14:07:19.940Z,34.85
2019-04-29T14:09:51.223Z,34.69
2019-04-29T14:14:58.439Z,35.94
2019-04-29T14:17:31.775Z,35.24
2019-04-29T14:18:53.507Z,35.51
2019-04-29T14:20:01.533Z,35.90
2019-04-29T14:22:32.800Z,36.09
2019-04-29T14:25:04.515Z,36.46
2019-04-29T14:27:35.834Z,36.40
2019-04-29T14:30:13.707Z,36.64
2019-04-29T14:32:46.937Z,36.82
2019-04-29T14:35:47.636Z,36.90
2019-04-29T14:38:16.588Z,37.10
2019-04-29T14:40:47.913Z,37.50
2019-04-29T14:43:36.547Z,37.87
2019-04-29T14:46:16.784Z,37.71
2019-04-29T14:48:52.619Z,38.39
2019-04-29T14:51:27.933Z,38.17
2019-04-29T14:54:00.972Z,37.67
2019-04-29T14:56:29.967Z,37.45
2019-04-29T14:59:06.856Z,37.76
2019-04-29T15:01:41.985Z,37.96
2019-04-29T15:04:19.069Z,38.41
2019-04-29T15:06:48.285Z,38.51
2019-04-29T15:09:20.064Z,38.84
2019-04-29T15:11:59.641Z,39.14
2019-04-29T15:14:48.603Z,39.65
2019-04-29T15:17:44.814Z,40.10
2019-04-29T15:20:29.878Z,40.20
2019-04-29T15:22:58.013Z,40.67
2019-04-29T15:25:29.295Z,40.42
2019-04-29T15:28:00.605Z,40.16
2019-04-29T15:30:36.612Z,40.53
2019-04-29T15:33:04.908Z,41.18
2019-04-29T15:35:36.229Z,41.21
2019-04-29T15:38:07.570Z,42.14
2019-04-29T15:40:42.941Z,42.41
2019-04-29T15:43:11.899Z,42.55
2019-04-29T15:45:43.211Z,42.80
2019-04-29T15:48:14.512Z,43.47
2019-04-29T15:50:45.820Z,43.52
2019-04-29T15:53:17.142Z,43.33
2019-04-29T15:55:48.476Z,43.21
2019-04-29T15:58:22.704Z,43.61
2019-04-29T16:00:52.890Z,44.49
2019-04-29T16:03:24.265Z,44.91
2019-04-29T16:06:20.778Z,45.45
2019-04-29T16:08:59.352Z,45.58
2019-04-29T16:11:55.457Z,46.15
2019-04-29T16:14:26.758Z,47.24
2019-04-29T16:16:58.051Z,48.41
2019-04-29T16:19:29.384Z,49.34
2019-04-29T16:22:00.690Z,50.53
2019-04-29T16:24:37.448Z,51.30
2019-04-29T16:27:09.128Z,51.33
2019-04-29T16:29:39.019Z,52.15
2019-04-29T16:32:12.407Z,52.10
2019-04-29T16:34:44.608Z,52.79
2019-04-29T16:37:19.382Z,53.91
2019-04-29T16:39:52.907Z,54.59
2019-04-29T16:42:28.619Z,54.84
2019-04-29T16:44:59.889Z,54.70
2019-04-29T16:47:31.768Z,55.75
2019-04-29T16:50:04.729Z,56.35
2019-04-29T16:52:36.141Z,56.25
2019-04-29T16:55:07.503Z,56.92
2019-04-29T16:57:38.831Z,56.90
2019-04-29T17:00:14.742Z,57.16
2019-04-29T17:02:45.375Z,57.78
2019-04-29T17:05:16.795Z,57.41
2019-04-29T17:07:48.297Z,58.03
2019-04-29T17:10:44.864Z,58.06
2019-04-29T17:13:23.336Z,58.25
2019-04-29T17:15:52.033Z,58.69
2019-04-29T17:18:22.482Z,59.00
2019-04-29T17:20:53.787Z,58.99
2019-04-29T17:23:25.131Z,59.15
2019-04-29T17:25:56.467Z,59.21
2019-04-29T17:28:37.276Z,59.16
2019-04-29T17:31:26.506Z,58.59
2019-04-29T17:34:01.583Z,58.56
2019-04-29T17:36:33.157Z,58.69
2019-04-29T17:39:04.645Z,59.18
2019-04-29T17:41:36.070Z,59.64
2019-04-29T17:44:35.205Z,59.96
2019-04-29T17:47:24.182Z,60.38
2019-04-29T17:50:12.903Z,60.29
2019-04-29T17:52:44.390Z,60.49
2019-04-29T17:55:38.089Z,60.47
2019-04-29T17:58:10.131Z,60.33
2019-04-29T18:01:06.633Z,60.05
2019-04-29T18:04:02.994Z,60.38
2019-04-29T18:06:48.124Z,60.32
2019-04-29T18:09:32.325Z,60.46
2019-04-29T18:12:10.195Z,60.90
2019-04-29T18:14:42.007Z,60.94
2019-04-29T18:17:24.132Z,61.52
2019-04-29T18:20:00.851Z,61.37
2019-04-29T18:23:02.258Z,61.64
2019-04-29T18:25:41.013Z,61.66
2019-04-29T18:28:12.597Z,62.35
2019-04-29T18:30:45.016Z,62.34
2019-04-29T18:33:19.009Z,63.07
2019-04-29T18:35:49.959Z,63.09
2019-04-29T18:38:21.633Z,62.65
2019-04-29T18:40:53.265Z,63.39
2019-04-29T18:43:26.638Z,63.47
2019-04-29T18:45:59.304Z,62.86
2019-04-29T18:48:30.970Z,63.12
2019-04-29T18:51:02.624Z,63.68
2019-04-29T18:53:35.404Z,64.07
2019-04-29T18:56:07.132Z,64.36
2019-04-29T18:58:42.166Z,64.50
2019-04-29T19:01:11.992Z,65.15
2019-04-29T19:03:59.622Z,66.29
2019-04-29T19:06:31.260Z,67.91
2019-04-29T19:09:02.971Z,68.74
2019-04-29T19:11:35.200Z,69.65
2019-04-29T19:14:06.963Z,70.50
2019-04-29T19:16:39.568Z,71.01
2019-04-29T19:19:11.281Z,72.03
2019-04-29T19:21:42.932Z,72.21
2019-04-29T19:24:16.209Z,72.08
2019-04-29T19:26:47.929Z,72.50
2019-04-29T19:29:19.626Z,71.83
2019-04-29T19:31:51.345Z,71.82
2019-04-29T19:34:23.007Z,71.23
2019-04-29T19:36:59.197Z,71.08
2019-04-29T19:39:27.835Z,71.31
2019-04-29T19:41:59.440Z,71.67
2019-04-29T19:44:33.394Z,72.11
2019-04-29T19:47:04.187Z,72.09
2019-04-29T19:49:36.030Z,72.22
2019-04-29T19:52:08.731Z,72.29
2019-04-29T19:54:40.487Z,72.53
2019-04-29T19:57:11.924Z,72.97
2019-04-29T19:59:50.991Z,73.50
2019-04-29T20:02:17.299Z,73.59
2019-04-29T20:05:01.010Z,73.19
2019-04-29T20:07:40.857Z,73.32
2019-04-29T20:10:09.865Z,73.45
2019-04-29T20:12:41.370Z,72.97
2019-04-29T20:15:16.423Z,71.27
2019-04-29T20:18:19.729Z,70.56
2019-04-29T20:20:52.602Z,70.34
2019-04-29T20:23:26.179Z,70.18
2019-04-29T20:26:12.557Z,70.44
2019-04-29T20:28:30.391Z,70.31
2019-04-29T20:31:15.292Z,70.47
2019-04-29T20:33:35.039Z,70.49
2019-04-29T20:36:06.801Z,70.30
2019-04-29T20:38:39.049Z,70.60
2019-04-29T20:41:13.122Z,70.55
2019-04-29T20:43:45.907Z,70.57
2019-04-29T20:46:17.990Z,70.82
2019-04-29T20:48:54.248Z,71.03
2019-04-29T20:51:23.180Z,70.78
2019-04-29T20:54:01.828Z,70.72
2019-04-29T20:56:35.246Z,70.73
2019-04-29T20:59:11.349Z,70.92
2019-04-29T21:01:43.301Z,70.99
2019-04-29T21:04:29.754Z,71.40
2019-04-29T21:06:59.234Z,71.71
2019-04-29T21:09:22.083Z,71.68
2019-04-29T21:12:15.723Z,71.25
2019-04-29T21:14:51.759Z,71.09
2019-04-29T21:17:31.271Z,71.81
2019-04-29T21:19:56.580Z,72.18
2019-04-29T21:22:27.893Z,72.27
2019-04-29T21:24:59.302Z,72.28
2019-04-29T21:27:30.579Z,72.42
2019-04-29T21:30:01.898Z,73.10
2019-04-29T21:32:35.376Z,73.10
2019-04-29T21:35:17.194Z,73.16
2019-04-29T21:37:58.366Z,73.58
2019-04-29T21:40:35.518Z,73.72
2019-04-29T21:43:13.453Z,74.27
2019-04-29T21:45:44.981Z,74.44
2019-04-29T21:48:16.468Z,74.32
2019-04-29T21:50:47.827Z,74.35
2019-04-29T21:53:19.119Z,74.29
2019-04-29T21:55:50.403Z,74.38
2019-04-29T21:58:21.742Z,74.43
2019-04-29T22:00:55.926Z,74.55
2019-04-29T22:03:28.008Z,74.66
2019-04-29T22:06:00.446Z,74.32
2019-04-29T22:08:31.984Z,74.45
2019-04-29T22:11:05.001Z,74.58
2019-04-29T22:13:38.983Z,74.72
2019-04-29T22:16:11.574Z,74.67
2019-04-29T22:18:44.630Z,74.46
2019-04-29T22:21:21.936Z,74.74
2019-04-29T22:23:51.078Z,75.07
2019-04-29T22:26:23.247Z,75.22
2019-04-29T22:29:01.822Z,75.27
2019-04-29T22:31:34.110Z,75.58
2019-04-29T22:34:01.547Z,75.83
2019-04-29T22:36:32.887Z,75.79
2019-04-29T22:39:06.160Z,76.19
2019-04-29T22:42:02.380Z,76.54
2019-04-29T22:44:35.896Z,76.70
2019-04-29T22:47:07.084Z,76.68
2019-04-29T22:49:38.415Z,76.86
2019-04-29T22:52:09.709Z,76.93
2019-04-29T22:54:41.013Z,77.07
2019-04-29T22:57:12.317Z,77.08
2019-04-29T22:59:44.933Z,77.22
2019-04-29T23:02:20.063Z,77.40
2019-04-29T23:04:53.709Z,77.49
2019-04-29T23:07:23.467Z,77.65
2019-04-29T23:09:55.523Z,77.72
2019-04-29T23:12:27.839Z,77.58
2019-04-29T23:14:59.101Z,77.75
2019-04-29T23:17:30.427Z,77.92
2019-04-29T23:20:09.507Z,78.16
2019-04-29T23:22:52.755Z,78.37
2019-04-29T23:25:35.461Z,78.51
2019-04-29T23:28:06.994Z,78.34
2019-04-29T23:30:38.277Z,78.47
2019-04-29T23:33:09.599Z,78.70
2019-04-29T23:35:41.076Z,79.03
2019-04-29T23:38:12.378Z,79.25
2019-04-29T23:40:43.806Z,78.97
2019-04-29T23:43:15.766Z,78.99
2019-04-29T23:45:47.117Z,79.44
2019-04-29T23:48:19.941Z,79.59
2019-04-29T23:50:54.700Z,79.57
2019-04-29T23:53:25.231Z,79.82
2019-04-29T23:56:00.134Z,79.82
2019-04-29T23:58:46.800Z,80.08
